X  CloseMetar Aviation Weather Data     YMAV Avalon

Temperature

14°C Temperature

10°C Dewpoint

77% Humidity



Wind

21 KM/H

13 MPH

 6 M/S

11 KTS



20°
North North
East
Current Conditions

Clear Clear
Pressure 1018.92 (hPa) - 30.09 (in)
Visibility 6.2 (mi) - 10 (km)
Airport
Airport-code YMAV

Location Avalon 14 (km)

Metar:
YMAV 270130Z AUTO 02011KT 9999 // NCD 14/10 Q1019 RF00.0/000.0

Time: 27-05-2020 11:30